createdAt,value
2023-01-03T00:05:34.274Z,2.20
2023-01-03T00:10:35.753Z,2.22
2023-01-03T00:15:38.568Z,3.10
2023-01-03T00:20:40.050Z,2.10
2023-01-03T00:25:41.477Z,2.85
2023-01-03T00:30:42.966Z,2.00
2023-01-03T00:35:44.440Z,2.33
2023-01-03T00:40:45.865Z,2.25
2023-01-03T00:45:47.340Z,2.10
2023-01-03T00:50:48.790Z,2.72
2023-01-03T00:55:50.228Z,2.17
2023-01-03T01:00:51.657Z,2.60
2023-01-03T01:05:53.069Z,2.55
2023-01-03T01:11:03.314Z,2.75
2023-01-03T01:16:06.417Z,2.22
2023-01-03T01:21:08.993Z,3.15
2023-01-03T01:26:14.674Z,2.15
2023-01-03T01:31:17.761Z,2.88
2023-01-03T01:36:23.643Z,2.65
2023-01-03T01:41:44.537Z,3.03
2023-01-03T01:46:46.117Z,3.03
2023-01-03T01:51:47.658Z,2.40
2023-01-03T01:56:51.313Z,2.45
2023-01-03T02:01:53.293Z,3.08
2023-01-03T02:06:55.616Z,2.60
2023-01-03T02:12:24.813Z,3.05
2023-01-03T02:17:29.162Z,2.47
2023-01-03T02:22:45.822Z,2.67
2023-01-03T02:27:56.528Z,2.03
2023-01-03T02:33:00.927Z,3.00
2023-01-03T02:38:07.606Z,2.63
2023-01-03T02:43:29.237Z,2.47
2023-01-03T02:48:49.651Z,2.95
2023-01-03T02:53:51.228Z,2.50
2023-01-03T02:58:58.941Z,2.40
2023-01-03T03:04:01.587Z,2.65
2023-01-03T03:09:03.707Z,2.58
2023-01-03T03:14:12.343Z,2.80
2023-01-03T03:19:49.501Z,2.80
2023-01-03T03:24:51.210Z,2.70
2023-01-03T03:29:54.722Z,2.50
2023-01-03T03:34:57.263Z,2.78
2023-01-03T03:40:17.234Z,2.92
2023-01-03T03:45:24.294Z,2.75
2023-01-03T03:50:31.664Z,2.75
2023-01-03T03:55:38.937Z,2.55
2023-01-03T04:00:41.688Z,2.88
2023-01-03T04:05:46.089Z,3.00
2023-01-03T04:10:47.547Z,3.08
2023-01-03T04:15:48.976Z,3.55
2023-01-03T04:20:50.532Z,5.75
2023-01-03T04:25:52.057Z,8.10
2023-01-03T04:30:53.494Z,8.43
2023-01-03T04:35:54.945Z,9.38
2023-01-03T04:40:56.371Z,10.57
2023-01-03T04:45:57.871Z,11.63
2023-01-03T04:50:59.601Z,12.02
2023-01-03T04:56:01.159Z,11.50
2023-01-03T05:01:03.444Z,12.82
2023-01-03T05:06:07.218Z,12.90
2023-01-03T05:11:08.738Z,12.00
2023-01-03T05:16:12.227Z,13.13
2023-01-03T05:21:36.089Z,12.67
2023-01-03T05:26:38.986Z,13.13
2023-01-03T05:31:40.599Z,13.48
2023-01-03T05:36:42.150Z,13.27
2023-01-03T05:42:01.543Z,14.32
2023-01-03T05:47:04.030Z,13.73
2023-01-03T05:52:05.874Z,13.55
2023-01-03T05:57:07.303Z,15.27
2023-01-03T06:02:08.867Z,12.88
2023-01-03T06:07:10.400Z,14.23
2023-01-03T06:12:11.846Z,13.88
2023-01-03T06:17:32.132Z,15.10
2023-01-03T06:22:33.532Z,16.25
2023-01-03T06:27:35.062Z,13.93
2023-01-03T06:32:36.510Z,12.73
2023-01-03T06:37:38.050Z,10.98
2023-01-03T06:42:39.554Z,10.95
2023-01-03T06:47:59.774Z,11.88
2023-01-03T06:58:14.787Z,12.00
2023-01-03T07:03:16.307Z,12.85
2023-01-03T07:08:17.930Z,13.93
2023-01-03T07:13:38.093Z,14.57
2023-01-03T07:23:40.937Z,16.02
2023-01-03T07:28:42.337Z,15.52
2023-01-03T07:33:45.206Z,19.10
2023-01-03T07:38:46.818Z,18.10
2023-01-03T07:43:49.227Z,19.63
2023-01-03T07:48:51.833Z,20.27
2023-01-03T07:53:53.609Z,21.13
2023-01-03T07:58:55.820Z,22.90
2023-01-03T08:03:57.262Z,21.58
2023-01-03T08:09:17.641Z,24.30
2023-01-03T08:14:23.648Z,23.05
2023-01-03T08:19:27.445Z,25.85
2023-01-03T08:24:28.886Z,27.17
2023-01-03T08:29:30.421Z,26.90
2023-01-03T08:34:33.994Z,26.98
2023-01-03T08:39:39.214Z,26.08
2023-01-03T08:44:41.182Z,26.13
2023-01-03T08:49:42.816Z,24.80
2023-01-03T08:54:44.401Z,22.42
2023-01-03T08:59:45.852Z,21.35
2023-01-03T09:04:47.343Z,20.65
2023-01-03T09:09:48.881Z,18.90
2023-01-03T09:14:51.010Z,19.27
2023-01-03T09:19:52.548Z,19.10
2023-01-03T09:24:55.624Z,21.58
2023-01-03T09:29:57.074Z,21.58
2023-01-03T09:34:58.507Z,18.65
2023-01-03T09:39:59.904Z,18.02
2023-01-03T09:50:35.293Z,17.42
2023-01-03T09:56:03.595Z,16.70
2023-01-03T10:01:34.825Z,15.75
2023-01-03T10:06:43.697Z,15.55
2023-01-03T10:11:54.976Z,14.38
2023-01-03T10:17:21.150Z,15.82
2023-01-03T10:22:25.599Z,14.07
2023-01-03T10:27:27.924Z,14.95
2023-01-03T10:32:49.426Z,15.27
2023-01-03T10:37:52.742Z,16.23
2023-01-03T10:42:55.543Z,17.60
2023-01-03T10:48:00.647Z,16.73
2023-01-03T10:53:06.559Z,16.08
2023-01-03T10:58:20.024Z,17.67
2023-01-03T11:03:23.362Z,18.60
2023-01-03T11:08:37.832Z,18.65
2023-01-03T11:13:41.162Z,18.88
2023-01-03T11:18:43.470Z,19.17
2023-01-03T11:24:06.115Z,17.20
2023-01-03T11:29:13.074Z,17.17
2023-01-03T11:34:24.270Z,18.92
2023-01-03T11:39:28.591Z,18.30
2023-01-03T11:44:35.896Z,17.67
2023-01-03T11:49:50.199Z,17.48
2023-01-03T11:54:57.679Z,18.35
2023-01-03T12:00:09.151Z,17.08
2023-01-03T12:05:28.892Z,17.85
2023-01-03T12:10:53.702Z,18.58
2023-01-03T12:16:14.111Z,18.83
2023-01-03T12:21:20.782Z,19.00
2023-01-03T12:26:23.567Z,19.02
2023-01-03T12:31:33.024Z,18.80
2023-01-03T12:36:34.610Z,19.63
2023-01-03T12:41:43.486Z,19.05
2023-01-03T12:46:48.514Z,19.30
2023-01-03T12:51:50.082Z,20.05
2023-01-03T12:56:54.249Z,19.35
2023-01-03T13:01:59.258Z,18.40
2023-01-03T13:07:12.610Z,17.88
2023-01-03T13:12:15.693Z,18.73
2023-01-03T13:17:18.577Z,16.45
2023-01-03T13:22:20.027Z,18.23
2023-01-03T13:27:25.284Z,18.08
2023-01-03T13:32:31.597Z,17.15
2023-01-03T13:37:46.871Z,16.08
2023-01-03T13:42:49.416Z,15.27
2023-01-03T13:47:52.197Z,13.93
2023-01-03T13:53:04.330Z,13.60
2023-01-03T13:58:24.170Z,12.77
2023-01-03T14:03:53.145Z,12.75
2023-01-03T14:09:13.114Z,13.20
2023-01-03T14:14:16.563Z,13.20
2023-01-03T14:19:33.974Z,13.57
2023-01-03T14:24:35.597Z,12.93
2023-01-03T14:29:38.365Z,12.98
2023-01-03T14:34:41.200Z,13.30
2023-01-03T14:39:55.511Z,14.10
2023-01-03T14:44:58.269Z,13.63
2023-01-03T14:50:00.004Z,12.38
2023-01-03T14:55:04.438Z,12.88
2023-01-03T15:00:08.681Z,12.00
2023-01-03T15:05:29.513Z,11.73
2023-01-03T15:10:32.487Z,10.68
2023-01-03T15:15:36.696Z,9.55
2023-01-03T15:20:39.261Z,10.00
2023-01-03T15:25:41.761Z,10.27
2023-01-03T15:30:47.953Z,9.90
2023-01-03T15:35:50.859Z,9.20
2023-01-03T15:40:52.546Z,10.68
2023-01-03T15:46:01.441Z,9.50
2023-01-03T15:51:03.906Z,10.03
2023-01-03T15:56:05.320Z,11.32
2023-01-03T16:01:07.491Z,10.45
2023-01-03T16:06:09.043Z,9.57
2023-01-03T16:11:19.562Z,10.70
2023-01-03T16:16:24.193Z,9.73
2023-01-03T16:21:25.828Z,9.52
2023-01-03T16:26:27.278Z,9.80
2023-01-03T16:31:31.315Z,9.75
2023-01-03T16:36:34.638Z,8.65
2023-01-03T16:41:36.065Z,9.13
2023-01-03T16:46:38.493Z,8.40
2023-01-03T16:51:46.761Z,8.60
2023-01-03T16:56:50.459Z,7.97
2023-01-03T17:01:52.024Z,7.68
2023-01-03T17:06:53.593Z,7.38
2023-01-03T17:11:55.176Z,7.03
2023-01-03T17:16:58.086Z,6.88
2023-01-03T17:21:59.729Z,6.32
2023-01-03T17:27:04.510Z,6.03
2023-01-03T17:32:11.274Z,5.80
2023-01-03T17:37:15.892Z,6.40
2023-01-03T17:42:17.579Z,5.85
2023-01-03T17:47:41.205Z,5.88
2023-01-03T17:52:42.727Z,5.90
2023-01-03T17:57:44.230Z,5.70
2023-01-03T18:02:46.320Z,5.95
2023-01-03T18:07:48.697Z,5.70
2023-01-03T18:12:50.197Z,5.35
2023-01-03T18:17:52.603Z,5.10
2023-01-03T18:22:54.416Z,5.57
2023-01-03T18:28:02.386Z,5.82
2023-01-03T18:33:04.479Z,6.50
2023-01-03T18:38:06.133Z,6.07
2023-01-03T18:43:13.006Z,5.85
2023-01-03T18:48:16.301Z,5.50
2023-01-03T18:53:25.728Z,6.03
2023-01-03T18:58:32.430Z,6.00
2023-01-03T19:03:34.752Z,5.88
2023-01-03T19:08:36.406Z,6.43
2023-01-03T19:13:51.729Z,6.25
2023-01-03T19:18:53.488Z,6.30
2023-01-03T19:23:58.260Z,6.50
2023-01-03T19:29:01.899Z,6.20
2023-01-03T19:34:03.374Z,5.60
2023-01-03T19:39:05.255Z,5.93
2023-01-03T19:44:08.053Z,6.03
2023-01-03T19:49:14.368Z,6.00
2023-01-03T19:54:15.943Z,6.65
2023-01-03T19:59:26.600Z,6.03
2023-01-03T20:04:28.173Z,5.95
2023-01-03T20:09:29.748Z,5.80
2023-01-03T20:14:31.230Z,5.55
2023-01-03T20:19:32.677Z,5.82
2023-01-03T20:24:34.209Z,5.40
2023-01-03T20:29:35.657Z,5.18
2023-01-03T20:34:37.795Z,4.88
2023-01-03T20:39:39.260Z,5.75
2023-01-03T20:44:40.661Z,4.75
2023-01-03T20:49:42.635Z,4.72
2023-01-03T20:54:44.147Z,4.82
2023-01-03T20:59:45.607Z,5.18
2023-01-03T21:04:47.098Z,4.60
2023-01-03T21:09:48.519Z,4.85
2023-01-03T21:14:50.025Z,5.15
2023-01-03T21:19:51.449Z,4.63
2023-01-03T21:24:57.526Z,4.75
2023-01-03T21:29:59.415Z,4.50
2023-01-03T21:35:00.884Z,4.97
2023-01-03T21:40:02.362Z,4.35
2023-01-03T21:45:03.866Z,4.22
2023-01-03T21:50:06.018Z,4.28
2023-01-03T21:55:07.797Z,4.60
2023-01-03T22:00:11.704Z,4.43
2023-01-03T22:05:13.195Z,4.25
2023-01-03T22:10:18.896Z,4.90
2023-01-03T22:15:21.159Z,4.20
2023-01-03T22:20:24.844Z,4.07
2023-01-03T22:25:26.309Z,4.28
2023-01-03T22:30:27.815Z,3.92
2023-01-03T22:35:29.270Z,3.80
2023-01-03T22:40:30.667Z,4.10
2023-01-03T22:45:32.146Z,3.78
2023-01-03T22:50:33.673Z,3.38
2023-01-03T22:55:35.215Z,3.63
2023-01-03T23:00:36.928Z,3.53
2023-01-03T23:05:38.323Z,3.60
2023-01-03T23:10:39.834Z,4.40
2023-01-03T23:15:41.324Z,3.85
2023-01-03T23:20:48.818Z,4.10
2023-01-03T23:25:50.245Z,3.30
2023-01-03T23:30:51.730Z,3.75
2023-01-03T23:35:53.239Z,4.18
2023-01-03T23:40:54.671Z,4.68
2023-01-03T23:45:57.799Z,3.88
2023-01-03T23:51:03.108Z,4.30
2023-01-03T23:56:08.412Z,4.32
